Time;durP1;ratioP1;P1;durP2;ratioP2;P2;SDS_P1;SDS_P2;PMS_P1;PMS_P2;Temp;Humidity;BMP_temperature;BMP_pressure;BME280_temperature;BME280_humidity;BME280_pressure;Samples;Min_cycle;Max_cycle;Signal;HPM_P1;HPM_P2
2021/11/18 00:03:09;;;;;;;;;;;7.20;99.90;;;;;;8431487;28;19924;-72
2021/11/18 00:07:29;;;;;;;;;;;7.10;99.90;;;;;;8428419;28;19977;-72
2021/11/18 00:11:31;;;;;;;;;;;7.10;99.90;;;;;;8432024;28;19932;-71
2021/11/18 00:20:41;;;;;;;;;;;7.00;99.90;;;;;;8424713;28;20349;-71
2021/11/18 00:24:43;;;;;;;;;;;7.00;99.90;;;;;;8430520;28;20448;-71
2021/11/18 00:28:45;;;;;;;;;;;7.00;99.90;;;;;;8424658;28;20407;-72
2021/11/18 00:32:47;;;;;;;;;;;7.00;99.90;;;;;;8427929;28;19931;-72
2021/11/18 00:36:49;;;;;;;;;;;7.00;99.90;;;;;;8427198;28;19924;-71
2021/11/18 00:40:53;;;;;;;;;;;6.90;99.90;;;;;;8427930;28;19931;-72
2021/11/18 00:44:57;;;;;;;;;;;6.90;99.90;;;;;;8424728;28;19924;-72
2021/11/18 00:48:59;;;;;;;;;;;6.90;99.90;;;;;;8421549;28;19925;-72
2021/11/18 00:53:02;;;;;;;;;;;6.90;99.90;;;;;;8436217;28;19924;-72
2021/11/18 00:57:04;;;;;;;;;;;6.80;99.90;;;;;;8423398;28;19924;-71
2021/11/18 01:01:06;;;;;;;;;;;6.80;99.90;;;;;;8453851;27;20375;-72
2021/11/18 01:05:08;;;;;;;;;;;6.90;99.90;;;;;;8437146;28;19924;-72
2021/11/18 01:09:10;;;;;;;;;;;6.90;99.90;;;;;;8428944;28;19924;-71
2021/11/18 01:13:12;;;;;;;;;;;7.00;99.90;;;;;;8445534;27;19924;-72
2021/11/18 01:17:14;;;;;;;;;;;7.00;99.90;;;;;;8423315;28;19931;-72
2021/11/18 01:21:16;;;;;;;;;;;7.10;99.90;;;;;;8417508;28;19939;-72
2021/11/18 01:25:18;;;;;;;;;;;7.10;99.90;;;;;;8416364;28;20422;-72
2021/11/18 01:29:19;;;;;;;;;;;7.20;99.90;;;;;;8424833;28;19975;-72
2021/11/18 01:33:21;;;;;;;;;;;7.30;99.90;;;;;;8423519;28;19973;-72
2021/11/18 01:37:23;;;;;;;;;;;7.30;99.90;;;;;;8426896;28;19924;-72
2021/11/18 01:41:26;;;;;;;;;;;7.30;99.90;;;;;;8427090;28;19924;-73
2021/11/18 01:45:28;;;;;;;;;;;7.30;99.90;;;;;;8424582;28;20013;-71
2021/11/18 01:49:30;;;;;;;;;;;7.20;99.90;;;;;;8421089;28;19935;-71
2021/11/18 01:53:36;;;;;;;;;;;7.20;99.90;;;;;;8444817;27;19931;-72
2021/11/18 01:57:38;;;;;;;;;;;7.10;99.90;;;;;;8418745;28;19935;-71
2021/11/18 02:01:41;;;;;;;;;;;7.10;99.90;;;;;;8423481;28;19924;-72
2021/11/18 02:05:52;;;;;;;;;;;7.10;99.90;;;;;;8426587;28;19935;-72
2021/11/18 02:09:54;;;;;;;;;;;7.00;99.90;;;;;;8423267;28;19928;-72
2021/11/18 02:13:56;;;;;;;;;;;7.00;99.90;;;;;;8431826;28;19930;-72
2021/11/18 02:17:58;;;;;;;;;;;7.00;99.90;;;;;;8433818;28;19969;-72
2021/11/18 02:22:00;;;;;;;;;;;7.10;99.90;;;;;;8430363;28;19973;-72
2021/11/18 02:26:02;;;;;;;;;;;7.10;99.90;;;;;;8432807;28;19978;-72
2021/11/18 02:30:04;;;;;;;;;;;7.20;99.90;;;;;;8421024;28;19928;-71
2021/11/18 02:34:08;;;;;;;;;;;7.30;99.90;;;;;;8419121;28;20471;-72
2021/11/18 02:38:10;;;;;;;;;;;7.40;99.90;;;;;;8419169;28;20279;-72
2021/11/18 02:42:13;;;;;;;;;;;7.40;99.90;;;;;;8425684;28;19928;-72
2021/11/18 02:46:15;;;;;;;;;;;7.40;99.90;;;;;;8424451;28;19931;-72
2021/11/18 02:50:19;;;;;;;;;;;7.50;99.90;;;;;;8419664;28;19960;-72
2021/11/18 02:54:20;;;;;;;;;;;7.50;99.90;;;;;;8424152;28;19958;-72
2021/11/18 02:58:23;;;;;;;;;;;7.50;99.90;;;;;;8420440;28;19932;-72
2021/11/18 03:02:24;;;;;;;;;;;7.60;99.90;;;;;;8421273;28;20307;-72
2021/11/18 03:06:27;;;;;;;;;;;7.60;99.90;;;;;;8426530;28;19957;-72
2021/11/18 03:10:29;;;;;;;;;;;7.60;99.90;;;;;;8427440;28;19959;-72
2021/11/18 03:14:31;;;;;;;;;;;7.60;99.90;;;;;;8427805;28;19924;-71
2021/11/18 03:18:33;;;;;;;;;;;7.70;99.90;;;;;;8430687;28;19942;-72
2021/11/18 03:22:34;;;;;;;;;;;7.70;99.90;;;;;;8433478;28;19986;-72
2021/11/18 03:26:36;;;;;;;;;;;7.70;99.90;;;;;;8435072;28;19924;-72
2021/11/18 03:30:40;;;;;;;;;;;7.70;99.90;;;;;;8433498;28;19932;-72
2021/11/18 03:34:42;;;;;;;;;;;7.70;99.90;;;;;;8429061;28;19951;-72
2021/11/18 03:38:43;;;;;;;;;;;7.70;99.90;;;;;;8428904;28;20615;-72
2021/11/18 03:42:45;;;;;;;;;;;7.70;99.90;;;;;;8429700;28;19931;-72
2021/11/18 03:46:49;;;;;;;;;;;7.80;99.90;;;;;;8427918;28;19928;-72
2021/11/18 03:50:51;;;;;;;;;;;7.80;99.90;;;;;;8424588;28;19931;-72
2021/11/18 03:54:53;;;;;;;;;;;7.80;99.90;;;;;;8430937;28;19931;-75
2021/11/18 03:58:55;;;;;;;;;;;7.90;99.90;;;;;;8424639;28;19929;-74
2021/11/18 04:02:57;;;;;;;;;;;7.80;99.90;;;;;;8432238;28;19928;-74
2021/11/18 04:06:59;;;;;;;;;;;7.90;99.90;;;;;;8434190;28;19931;-74
2021/11/18 04:11:01;;;;;;;;;;;7.90;99.90;;;;;;8428713;28;19931;-75
2021/11/18 04:15:04;;;;;;;;;;;7.90;99.90;;;;;;8428559;28;19924;-74
2021/11/18 04:19:05;;;;;;;;;;;7.90;99.90;;;;;;8434646;28;19924;-74
2021/11/18 04:23:07;;;;;;;;;;;7.90;99.90;;;;;;8439626;28;19932;-74
2021/11/18 04:27:09;;;;;;;;;;;7.90;99.90;;;;;;8436014;28;19924;-74
2021/11/18 04:31:15;;;;;;;;;;;8.00;99.90;;;;;;8433543;28;20279;-74
2021/11/18 04:35:17;;;;;;;;;;;7.90;99.90;;;;;;8430841;28;19980;-74
2021/11/18 04:39:19;;;;;;;;;;;8.00;99.90;;;;;;8433099;28;19935;-74
2021/11/18 04:43:21;;;;;;;;;;;8.00;99.90;;;;;;8430558;28;19924;-74
2021/11/18 04:47:24;;;;;;;;;;;8.00;99.90;;;;;;8425909;28;20257;-72
2021/11/18 04:51:26;;;;;;;;;;;7.90;99.90;;;;;;8431416;28;19931;-72
2021/11/18 04:55:29;;;;;;;;;;;7.90;99.90;;;;;;8422640;28;19925;-72
2021/11/18 04:59:31;;;;;;;;;;;7.90;99.90;;;;;;8417304;28;20342;-72
2021/11/18 05:03:33;;;;;;;;;;;7.80;99.90;;;;;;8427252;28;19924;-72
2021/11/18 05:07:35;;;;;;;;;;;7.80;99.90;;;;;;8425465;28;19932;-72
2021/11/18 05:11:37;;;;;;;;;;;7.80;99.90;;;;;;8426215;28;19931;-72
2021/11/18 05:15:41;;;;;;;;;;;7.80;99.90;;;;;;8432901;28;20387;-72
2021/11/18 05:19:43;;;;;;;;;;;7.80;99.90;;;;;;8421141;28;19924;-72
2021/11/18 05:23:44;;;;;;;;;;;7.80;99.90;;;;;;8421951;28;19936;-72
2021/11/18 05:27:46;;;;;;;;;;;7.80;99.90;;;;;;8422994;28;19923;-72
2021/11/18 05:31:48;;;;;;;;;;;7.90;99.90;;;;;;8425372;28;20040;-72
2021/11/18 05:35:50;;;;;;;;;;;7.90;99.90;;;;;;8427892;28;19981;-71
2021/11/18 05:39:52;;;;;;;;;;;7.90;99.90;;;;;;8424721;28;20411;-72
2021/11/18 05:43:56;;;;;;;;;;;8.00;99.90;;;;;;8429145;28;20360;-72
2021/11/18 05:47:58;;;;;;;;;;;8.00;99.90;;;;;;8418225;28;19924;-72
2021/11/18 05:51:59;;;;;;;;;;;8.00;99.90;;;;;;8418852;28;20330;-72
2021/11/18 05:56:04;;;;;;;;;;;8.00;99.90;;;;;;8424224;28;19925;-72
2021/11/18 06:00:08;;;;;;;;;;;8.10;99.90;;;;;;8413734;28;19939;-72
2021/11/18 06:04:10;;;;;;;;;;;8.20;99.90;;;;;;8415362;28;19924;-72
2021/11/18 06:08:12;;;;;;;;;;;8.20;99.90;;;;;;8419649;28;19924;-72
2021/11/18 06:12:14;;;;;;;;;;;8.20;99.90;;;;;;8417792;28;19956;-72
2021/11/18 06:16:17;;;;;;;;;;;8.20;99.90;;;;;;8419395;28;19928;-72
2021/11/18 06:20:19;;;;;;;;;;;8.20;99.90;;;;;;8416185;28;19924;-72
2021/11/18 06:24:22;;;;;;;;;;;8.20;99.90;;;;;;8417949;28;19946;-72
2021/11/18 06:28:23;;;;;;;;;;;8.20;99.90;;;;;;8418673;28;20291;-72
2021/11/18 06:32:25;;;;;;;;;;;8.20;99.90;;;;;;8418382;28;20039;-72
2021/11/18 06:36:27;;;;;;;;;;;8.20;99.90;;;;;;8420234;28;19924;-72
2021/11/18 06:40:29;;;;;;;;;;;8.20;99.90;;;;;;8449207;27;20364;-72
2021/11/18 06:44:31;;;;;;;;;;;8.10;99.90;;;;;;8426656;28;19947;-72
2021/11/18 06:48:33;;;;;;;;;;;8.10;99.90;;;;;;8422948;28;19932;-72
2021/11/18 06:52:36;;;;;;;;;;;8.00;99.90;;;;;;8423873;28;19969;-72
2021/11/18 06:56:37;;;;;;;;;;;8.00;99.90;;;;;;8434110;28;19932;-72
2021/11/18 07:00:39;;;;;;;;;;;8.00;99.90;;;;;;8447082;27;20552;-72
2021/11/18 07:04:43;;;;;;;;;;;8.00;99.90;;;;;;8441932;28;20398;-72
2021/11/18 07:08:45;;;;;;;;;;;7.90;99.90;;;;;;8433544;28;19939;-72
2021/11/18 07:12:52;;;;;;;;;;;7.90;99.90;;;;;;8427988;28;19932;-73
2021/11/18 07:16:53;;;;;;;;;;;7.90;99.90;;;;;;8428198;28;19931;-72
2021/11/18 07:20:55;;;;;;;;;;;7.80;99.90;;;;;;8429191;28;19936;-72
2021/11/18 07:24:58;;;;;;;;;;;7.80;99.90;;;;;;8433191;28;20349;-72
2021/11/18 07:28:59;;;;;;;;;;;7.80;99.90;;;;;;8439082;28;19930;-72
2021/11/18 07:33:01;;;;;;;;;;;7.80;99.90;;;;;;8430417;28;19923;-72
2021/11/18 07:37:03;;;;;;;;;;;7.90;99.90;;;;;;8427683;28;19931;-72
2021/11/18 07:41:06;;;;;;;;;;;7.90;99.90;;;;;;8425126;28;19923;-72
2021/11/18 07:45:09;;;;;;;;;;;7.90;99.90;;;;;;8425140;28;19924;-72
2021/11/18 07:49:11;;;;;;;;;;;7.90;99.90;;;;;;8433236;28;19931;-72
2021/11/18 07:53:14;;;;;;;;;;;7.90;99.90;;;;;;8435261;28;20374;-72
2021/11/18 07:57:16;;;;;;;;;;;7.90;99.90;;;;;;8412857;28;19986;-72
2021/11/18 08:01:18;;;;;;;;;;;8.00;99.90;;;;;;8410178;28;20004;-72
2021/11/18 08:05:21;;;;;;;;;;;8.00;99.90;;;;;;8408209;28;24751;-73
2021/11/18 08:09:23;;;;;;;;;;;8.10;99.90;;;;;;8407751;28;19932;-72
2021/11/18 08:13:24;;;;;;;;;;;8.00;99.90;;;;;;8401796;28;19935;-72
2021/11/18 08:17:26;;;;;;;;;;;8.10;99.90;;;;;;8404733;28;20295;-72
2021/11/18 08:21:28;;;;;;;;;;;8.10;99.90;;;;;;8407065;28;20806;-72
2021/11/18 08:25:31;;;;;;;;;;;8.10;99.90;;;;;;8407221;28;19928;-74
2021/11/18 08:29:32;;;;;;;;;;;8.10;99.90;;;;;;8409717;28;20382;-74
2021/11/18 08:33:35;;;;;;;;;;;8.20;99.90;;;;;;8403264;28;19928;-74
2021/11/18 08:37:36;;;;;;;;;;;8.20;99.90;;;;;;8401273;28;20002;-74
2021/11/18 08:41:38;;;;;;;;;;;8.30;99.90;;;;;;8411015;28;19931;-75
2021/11/18 08:45:39;;;;;;;;;;;8.40;99.90;;;;;;8401095;28;19950;-74
2021/11/18 08:49:41;;;;;;;;;;;8.50;99.90;;;;;;8395519;28;19963;-75
2021/11/18 08:53:45;;;;;;;;;;;8.60;99.90;;;;;;8407747;28;19934;-75
2021/11/18 08:57:47;;;;;;;;;;;8.70;99.90;;;;;;8410926;28;19956;-74
2021/11/18 09:01:53;;;;;;;;;;;8.80;99.90;;;;;;8398528;28;20399;-74
2021/11/18 09:05:55;;;;;;;;;;;9.00;99.90;;;;;;8402989;28;20008;-75
2021/11/18 09:09:57;;;;;;;11.75;5.38;;;9.20;99.90;;;;;;8400875;28;20275;-75
2021/11/18 09:14:01;;;;;;;14.95;5.88;;;9.40;99.90;;;;;;8400738;28;20451;-72
2021/11/18 09:18:07;;;;;;;15.98;6.90;;;9.60;99.90;;;;;;8428165;27;20044;-72
2021/11/18 09:22:12;;;;;;;15.63;7.30;;;9.60;99.90;;;;;;8400684;28;20704;-72
2021/11/18 09:26:15;;;;;;;18.92;6.85;;;9.70;99.90;;;;;;8405398;28;20047;-75
2021/11/18 09:30:30;;;;;;;16.13;6.35;;;9.70;99.90;;;;;;8393076;28;20052;-74
2021/11/18 09:34:31;;;;;;;;;;;9.70;99.90;;;;;;8422238;27;20044;-75
2021/11/18 09:38:34;;;;;;;;;;;9.80;99.90;;;;;;8387020;28;19927;-75
2021/11/18 09:42:56;;;;;;;;;;;9.90;99.90;;;;;;8390567;28;19992;-74
2021/11/18 09:47:13;;;;;;;;;;;10.00;99.90;;;;;;8391576;28;20394;-74
2021/11/18 09:51:33;;;;;;;;;;;10.20;99.90;;;;;;8390273;28;20299;-72
2021/11/18 09:55:39;;;;;;;;;;;10.20;99.90;;;;;;8386207;28;20343;-75
2021/11/18 09:59:44;;;;;;;;;;;10.20;99.90;;;;;;8401611;28;19927;-74
2021/11/18 10:04:00;;;;;;;;;;;10.10;99.90;;;;;;8399169;28;20295;-74
2021/11/18 10:08:06;;;;;;;;;;;10.30;99.90;;;;;;8398046;28;20291;-72
2021/11/18 10:12:23;;;;;;;;;;;10.40;99.90;;;;;;8395830;28;19927;-72
2021/11/18 10:16:31;;;;;;;;;;;10.60;99.90;;;;;;8387067;28;20367;-73
2021/11/18 10:20:35;;;;;;;;;;;10.80;99.90;;;;;;8389375;28;19925;-72
2021/11/18 10:24:38;;;;;;;;;;;11.20;99.90;;;;;;8386503;28;19931;-72
2021/11/18 10:28:43;;;;;;;;;;;11.60;99.90;;;;;;8379392;28;19958;-72
2021/11/18 10:33:05;;;;;;;;;;;11.90;99.90;;;;;;8424114;27;19920;-72
2021/11/18 10:37:13;;;;;;;;;;;12.20;99.90;;;;;;8387146;28;19924;-72
2021/11/18 10:41:15;;;;;;;;;;;12.40;99.90;;;;;;8388998;28;20236;-72
2021/11/18 10:45:37;;;;;;;;;;;12.60;99.90;;;;;;8401161;28;20299;-72
2021/11/18 10:49:48;;;;;;;;;;;12.80;99.90;;;;;;8385539;28;19973;-72
2021/11/18 10:53:57;;;;;;;;;;;12.90;99.90;;;;;;8389547;28;20031;-72
2021/11/18 10:58:00;;;;;;;;;;;13.00;99.90;;;;;;8385067;28;19924;-72
2021/11/18 11:02:13;;;;;;;;;;;13.30;99.90;;;;;;8389038;28;20324;-72
2021/11/18 11:06:17;;;;;;;;;;;13.50;99.90;;;;;;8387271;28;19924;-73
2021/11/18 11:10:20;;;;;;;;;;;13.70;99.90;;;;;;8386921;28;20366;-72
2021/11/18 11:14:32;;;;;;;;;;;13.80;99.90;;;;;;8389415;28;19932;-72
2021/11/18 11:18:43;;;;;;;;;;;13.90;99.90;;;;;;8389090;28;19927;-72
2021/11/18 11:23:00;;;;;;;;;;;13.90;99.90;;;;;;8401225;28;20380;-72
2021/11/18 11:27:30;;;;;;;;;;;14.10;99.90;;;;;;8387903;28;19927;-72
2021/11/18 11:31:41;;;;;;;;;;;14.30;99.90;;;;;;8391703;28;19924;-73
2021/11/18 11:35:47;;;;;;;;;;;14.40;99.90;;;;;;8392097;28;19922;-72
2021/11/18 11:39:52;;;;;;;;;;;14.30;99.90;;;;;;8393312;28;19920;-72
2021/11/18 11:43:55;;;;;;;;;;;14.30;99.90;;;;;;8390385;28;19950;-72
2021/11/18 11:48:17;;;;;;;;;;;14.30;99.90;;;;;;8391523;28;19947;-72
2021/11/18 11:52:27;;;;;;;;;;;14.20;99.90;;;;;;8390048;28;19921;-72
2021/11/18 11:56:33;;;;;;;;;;;14.10;99.90;;;;;;8389969;28;19927;-73
2021/11/18 12:00:56;;;;;;;;;;;14.20;99.90;;;;;;8389611;28;20368;-72
2021/11/18 12:05:27;;;;;;;;;;;14.30;99.90;;;;;;8392862;28;20331;-72
2021/11/18 12:10:16;;;;;;;;;;;14.40;99.90;;;;;;8399583;28;20006;-72
2021/11/18 12:14:33;;;;;;;;;;;14.50;99.90;;;;;;8386958;28;19928;-72
2021/11/18 12:18:49;;;;;;;;;;;14.50;99.90;;;;;;8396406;28;19978;-72
2021/11/18 12:23:08;;;;;;;;;;;14.50;99.90;;;;;;8389647;28;19946;-73
2021/11/18 12:27:19;;;;;;;;;;;14.50;99.90;;;;;;8390982;28;19924;-72
2021/11/18 12:31:32;;;;;;;;;;;14.60;99.90;;;;;;8388660;28;19972;-73
2021/11/18 12:35:44;;;;;;;;;;;14.60;99.90;;;;;;8400492;28;19957;-72
2021/11/18 12:39:54;;;;;;;;;;;14.90;99.90;;;;;;8389617;28;19931;-73
2021/11/18 12:49:07;;;;;;;;;;;15.20;99.90;;;;;;8411427;28;19930;-72
2021/11/18 12:53:36;;;;;;;;;;;15.40;99.90;;;;;;8399967;28;19924;-73
2021/11/18 12:57:53;;;;;;;;;;;15.60;99.90;;;;;;8394943;28;19928;-73
2021/11/18 13:02:06;;;;;;;;;;;15.40;99.90;;;;;;8396812;28;19924;-73
2021/11/18 13:06:45;;;;;;;;;;;15.10;99.90;;;;;;8394548;28;20279;-73
2021/11/18 13:10:52;;;;;;;;;;;14.50;99.90;;;;;;8404067;28;19932;-73
2021/11/18 13:14:59;;;;;;;;;;;14.00;99.90;;;;;;8409876;28;20073;-73
2021/11/18 13:19:08;;;;;;;;;;;13.70;99.90;;;;;;8395522;28;19938;-73
2021/11/18 13:23:29;;;;;;;;;;;13.50;99.90;;;;;;8402492;28;19977;-73
2021/11/18 13:27:40;;;;;;;;;;;13.30;99.90;;;;;;8422417;27;19924;-73
2021/11/18 13:32:00;;;;;;;13.07;4.20;;;13.10;99.90;;;;;;8404581;28;19919;-73
2021/11/18 13:36:14;;;;;;;16.02;5.05;;;12.90;99.90;;;;;;8400453;28;20067;-73
2021/11/18 13:40:23;;;;;;;10.48;3.60;;;12.80;99.90;;;;;;8396457;28;20048;-73
2021/11/18 13:44:31;;;;;;;;;;;12.70;99.90;;;;;;8396679;28;20037;-73
2021/11/18 13:48:46;;;;;;;;;;;12.70;99.90;;;;;;8394083;28;20325;-73
2021/11/18 13:53:03;;;;;;;;;;;12.70;99.90;;;;;;8391629;28;20445;-73
2021/11/18 13:57:11;;;;;;;;;;;12.80;99.90;;;;;;8390987;28;19925;-73
2021/11/18 14:01:17;;;;;;;;;;;12.80;99.90;;;;;;8392264;28;19946;-72
2021/11/18 14:05:25;;;;;;;;;;;12.70;99.90;;;;;;8402388;28;19971;-73
2021/11/18 14:09:29;;;;;;;;;;;12.60;99.90;;;;;;8392894;28;19924;-73
2021/11/18 14:13:31;;;;;;;;;;;12.60;99.90;;;;;;8393294;28;20382;-73
2021/11/18 14:17:33;;;;;;;;;;;12.80;99.90;;;;;;8396396;28;19966;-73
2021/11/18 14:21:41;;;;;;;;;;;12.80;99.90;;;;;;8397497;28;20019;-73
2021/11/18 14:25:44;;;;;;;;;;;12.80;99.90;;;;;;8391717;28;20548;-73
2021/11/18 14:29:52;;;;;;;;;;;12.70;99.90;;;;;;8396143;28;19924;-73
2021/11/18 14:33:59;;;;;;;;;;;12.70;99.90;;;;;;8391381;28;20343;-73
2021/11/18 14:38:06;;;;;;;;;;;12.60;99.90;;;;;;8390112;28;20387;-73
2021/11/18 14:42:45;;;;;;;;;;;12.50;99.90;;;;;;8396714;28;20304;-73
2021/11/18 14:47:02;;;;;;;;;;;12.50;99.90;;;;;;8395820;28;19931;-73
2021/11/18 14:51:24;;;;;;;;;;;12.40;99.90;;;;;;8393185;28;19928;-73
2021/11/18 14:55:28;;;;;;;;;;;12.30;99.90;;;;;;8383964;28;19924;-73
2021/11/18 14:59:30;;;;;;;;;;;12.30;99.90;;;;;;8388462;28;19920;-73
2021/11/18 15:03:43;;;;;;;;;;;12.20;99.90;;;;;;8394689;28;20200;-73
2021/11/18 15:07:45;;;;;;;;;;;12.20;99.90;;;;;;8397147;28;20375;-73
2021/11/18 15:11:49;;;;;;;;;;;12.10;99.90;;;;;;8401009;28;20283;-74
2021/11/18 15:15:51;;;;;;;;;;;12.10;99.90;;;;;;8401390;28;19919;-73
2021/11/18 15:19:53;;;;;;;;;;;12.10;99.90;;;;;;8396714;28;20291;-73
2021/11/18 15:24:17;;;;;;;;;;;12.10;99.90;;;;;;8393144;28;20439;-73
2021/11/18 15:28:21;;;;;;;;;;;12.00;99.90;;;;;;8400930;28;19924;-75
2021/11/18 15:32:25;;;;;;;;;;;12.00;99.90;;;;;;8398401;28;19920;-73
2021/11/18 15:36:27;;;;;;;;;;;11.90;99.90;;;;;;8395634;28;19931;-73
2021/11/18 15:40:28;;;;;;;;;;;11.90;99.90;;;;;;8397989;28;19928;-73
2021/11/18 15:44:30;;;;;;;;;;;11.90;99.90;;;;;;8402742;28;20249;-73
2021/11/18 15:48:33;;;;;;;;;;;11.80;99.90;;;;;;8404007;28;19924;-73
2021/11/18 15:52:34;;;;;;;;;;;11.80;99.90;;;;;;8400962;28;19920;-73
2021/11/18 15:56:45;;;;;;;;;;;11.80;99.90;;;;;;8397318;28;19928;-73
2021/11/18 16:00:49;;;;;;;;;;;11.80;99.90;;;;;;8399432;28;20038;-73
2021/11/18 16:04:51;;;;;;;;;;;11.80;99.90;;;;;;8394668;28;20321;-73
2021/11/18 16:08:56;;;;;;;;;;;11.80;99.90;;;;;;8395573;28;19919;-73
2021/11/18 16:13:00;;;;;;;;;;;11.80;99.90;;;;;;8389269;28;19935;-73
2021/11/18 16:17:06;;;;;;;;;;;11.70;99.90;;;;;;8391787;28;19928;-73
2021/11/18 16:21:16;;;;;;;;;;;11.70;99.90;;;;;;8397935;28;19946;-73
2021/11/18 16:25:19;;;;;;;;;;;11.70;99.90;;;;;;8393096;28;19932;-73
2021/11/18 16:29:25;;;;;;;;;;;11.70;99.90;;;;;;8396585;28;19931;-73
2021/11/18 16:33:27;;;;;;;;;;;11.70;99.90;;;;;;8400565;28;19924;-73
2021/11/18 16:37:30;;;;;;;;;;;11.80;99.90;;;;;;8395879;28;20339;-73
2021/11/18 16:41:34;;;;;;;;;;;11.70;99.90;;;;;;8430940;27;20410;-73
2021/11/18 16:45:36;;;;;;;;;;;11.70;99.90;;;;;;8396494;28;19920;-73
2021/11/18 16:49:38;;;;;;;;;;;11.70;99.90;;;;;;8404879;28;19957;-73
2021/11/18 16:53:40;;;;;;;;;;;11.70;99.90;;;;;;8397788;28;19927;-73
2021/11/18 16:57:42;;;;;;;;;;;11.70;99.90;;;;;;8392697;28;20275;-73
2021/11/18 17:02:07;;;;;;;;;;;11.80;99.90;;;;;;8398022;28;20372;-73
2021/11/18 17:06:09;;;;;;;;;;;11.70;99.90;;;;;;8395112;28;19934;-73
2021/11/18 17:10:11;;;;;;;;;;;11.70;99.90;;;;;;8394697;28;19921;-73
2021/11/18 17:14:14;;;;;;;;;;;11.70;99.90;;;;;;8394203;28;19985;-73
2021/11/18 17:18:18;;;;;;;;;;;11.70;99.90;;;;;;8400609;28;19927;-73
2021/11/18 17:22:21;;;;;;;;;;;11.70;99.90;;;;;;8397667;28;20299;-73
2021/11/18 17:26:24;;;;;;;;;;;11.80;99.90;;;;;;8394509;28;20275;-73
2021/11/18 17:30:38;;;;;;;;;;;11.80;99.90;;;;;;8394149;28;20095;-73
2021/11/18 17:34:40;;;;;;;;;;;11.80;99.90;;;;;;8391065;28;19946;-73
2021/11/18 17:38:43;;;;;;;;;;;11.80;99.90;;;;;;8397801;28;19927;-73
2021/11/18 17:42:46;;;;;;;;;;;11.80;99.90;;;;;;8405680;28;19920;-73
2021/11/18 17:46:50;;;;;;;;;;;11.80;99.90;;;;;;8397826;28;20013;-73
2021/11/18 17:50:54;;;;;;;;;;;11.80;99.90;;;;;;8393799;28;20291;-73
2021/11/18 17:54:57;;;;;;;;;;;11.80;99.90;;;;;;8398378;28;19921;-73
2021/11/18 17:58:59;;;;;;;;;;;11.80;99.90;;;;;;8400641;28;19920;-73
2021/11/18 18:03:01;;;;;;;;;;;11.80;99.90;;;;;;8392524;28;19920;-73
2021/11/18 18:07:03;;;;;;;;;;;11.90;99.90;;;;;;8397687;28;19932;-73
2021/11/18 18:11:07;;;;;;;;;;;11.80;99.90;;;;;;8393254;28;20283;-73
2021/11/18 18:15:10;;;;;;;;;;;11.80;99.90;;;;;;8389454;28;19924;-74
2021/11/18 18:19:12;;;;;;;;;;;11.80;99.90;;;;;;8413612;27;19920;-73
2021/11/18 18:23:14;;;;;;;;;;;11.80;99.90;;;;;;8396994;28;19920;-73
2021/11/18 18:27:21;;;;;;;;;;;11.90;99.90;;;;;;8395485;28;19931;-74
2021/11/18 18:31:25;;;;;;;;;;;11.80;99.90;;;;;;8392079;28;19920;-73
2021/11/18 18:35:27;;;;;;;;;;;11.80;99.90;;;;;;8393062;28;20402;-73
2021/11/18 18:39:52;;;;;;;;;;;11.80;99.90;;;;;;8399297;28;19932;-75
2021/11/18 18:43:54;;;;;;;;;;;11.80;99.90;;;;;;8411377;28;19928;-73
2021/11/18 18:47:57;;;;;;;;;;;11.80;99.90;;;;;;8403084;28;19920;-73
2021/11/18 18:52:10;;;;;;;;;;;11.80;99.90;;;;;;8407291;28;19997;-73
2021/11/18 18:56:12;;;;;;;;;;;11.80;99.90;;;;;;8404599;28;20295;-73
2021/11/18 19:00:20;;;;;;;;;;;11.80;99.90;;;;;;8406760;28;19920;-73
2021/11/18 19:04:23;;;;;;;;;;;11.80;99.90;;;;;;8403531;28;19966;-73
2021/11/18 19:08:25;;;;;;;;;;;11.80;99.90;;;;;;8413040;28;19924;-73
2021/11/18 19:12:27;;;;;;;;;;;11.80;99.90;;;;;;8407566;28;20314;-73
2021/11/18 19:16:31;;;;;;;;;;;11.80;99.90;;;;;;8403920;28;20445;-73
2021/11/18 19:20:33;;;;;;;;;;;11.80;99.90;;;;;;8412016;28;20000;-73
2021/11/18 19:24:38;;;;;;;;;;;11.80;99.90;;;;;;8399653;28;19924;-73
2021/11/18 19:33:02;;;;;;;;;;;11.80;99.90;;;;;;8401615;28;19924;-73
2021/11/18 19:37:05;;;;;;;;;;;11.80;99.90;;;;;;8406332;28;20302;-73
2021/11/18 19:41:10;;;;;;;;;;;11.80;99.90;;;;;;8401251;28;19920;-73
2021/11/18 19:45:14;;;;;;;;;;;11.80;99.90;;;;;;8402732;28;19920;-73
2021/11/18 19:49:17;;;;;;;;;;;11.80;99.90;;;;;;8403415;28;20295;-73
2021/11/18 19:53:21;;;;;;;;;;;11.80;99.90;;;;;;8405661;28;19920;-73
2021/11/18 19:57:24;;;;;;;;;;;11.80;99.90;;;;;;8395576;28;19927;-73
2021/11/18 20:01:29;;;;;;;;;;;11.80;99.90;;;;;;8396314;28;19954;-73
2021/11/18 20:05:32;;;;;;;;;;;11.80;99.90;;;;;;8395384;28;20371;-73
2021/11/18 20:09:34;;;;;;;;;;;11.90;99.90;;;;;;8396556;28;19935;-73
2021/11/18 20:13:37;;;;;;;;;;;11.90;99.90;;;;;;8399888;28;19994;-73
2021/11/18 20:17:40;;;;;;;;;;;11.90;99.90;;;;;;8430119;27;19928;-73
2021/11/18 20:21:42;;;;;;;;;;;11.90;99.90;;;;;;8400361;28;19931;-73
2021/11/18 20:25:45;;;;;;;;;;;11.90;99.90;;;;;;8392256;28;19993;-74
2021/11/18 20:29:49;;;;;;;;;;;11.90;99.90;;;;;;8395793;28;20014;-73
2021/11/18 20:33:50;;;;;;;;;;;11.90;99.90;;;;;;8396541;28;19929;-73
2021/11/18 20:37:52;;;;;;;;;;;11.90;99.90;;;;;;8411178;28;19977;-73
2021/11/18 20:41:54;;;;;;;;;;;11.90;99.90;;;;;;8406432;28;19981;-73
2021/11/18 20:45:57;;;;;;;;;;;11.90;99.90;;;;;;8400606;28;19927;-73
2021/11/18 20:50:00;;;;;;;;;;;11.90;99.90;;;;;;8399183;28;19927;-73
2021/11/18 20:54:05;;;;;;;;;;;11.90;99.90;;;;;;8414022;27;19924;-73
2021/11/18 20:58:07;;;;;;;;;;;11.90;99.90;;;;;;8394859;28;19920;-73
2021/11/18 21:02:11;;;;;;;;;;;11.90;99.90;;;;;;8400112;28;19920;-73
2021/11/18 21:06:13;;;;;;;;;;;11.90;99.90;;;;;;8402392;28;20401;-73
2021/11/18 21:10:16;;;;;;;;;;;11.90;99.90;;;;;;8401795;28;19945;-73
2021/11/18 21:14:20;;;;;;;;;;;11.90;99.90;;;;;;8403065;28;20277;-73
2021/11/18 21:18:22;;;;;;;;;;;11.90;99.90;;;;;;8404031;28;19931;-73
2021/11/18 21:22:25;;;;;;;;;;;11.80;99.90;;;;;;8412728;28;19934;-73
2021/11/18 21:26:27;;;;;;;;;;;11.80;99.90;;;;;;8403449;28;20267;-73
2021/11/18 21:30:35;;;;;;;;;;;11.80;99.90;;;;;;8409247;28;19969;-73
2021/11/18 21:34:39;;;;;;;;;;;11.70;99.90;;;;;;8404626;28;19931;-73
2021/11/18 21:38:41;;;;;;;;;;;11.70;99.90;;;;;;8406243;28;20264;-73
2021/11/18 21:42:45;;;;;;;;;;;11.70;99.90;;;;;;8402701;28;19920;-73
2021/11/18 21:46:59;;;;;;;;;;;11.70;99.90;;;;;;8407156;28;20501;-73
2021/11/18 21:51:03;;;;;;;;;;;11.60;99.90;;;;;;8409564;28;20379;-73
2021/11/18 21:55:10;;;;;;;;;;;11.60;99.90;;;;;;8405646;28;20368;-73
2021/11/18 21:59:13;;;;;;;;;;;11.70;99.90;;;;;;8408570;28;19974;-73
2021/11/18 22:03:16;;;;;;;;;;;11.60;99.90;;;;;;8416560;28;19924;-73
2021/11/18 22:07:20;;;;;;;;;;;11.70;99.90;;;;;;8427401;28;20337;-73
2021/11/18 22:11:22;;;;;;;;;;;11.70;99.90;;;;;;8427693;28;19981;-73
2021/11/18 22:15:23;;;;;;;;;;;11.60;99.90;;;;;;8424203;28;19920;-73
2021/11/18 22:19:26;;;;;;;;;;;11.60;99.90;;;;;;8422326;28;19973;-73
2021/11/18 22:23:32;;;;;;;;;;;11.60;99.90;;;;;;8420326;28;19985;-73
2021/11/18 22:27:36;;;;;;;;;;;11.60;99.90;;;;;;8423249;28;20290;-73
2021/11/18 22:31:38;;;;;;;;;;;11.60;99.90;;;;;;8429318;28;20432;-73
2021/11/18 22:35:40;;;;;;;;;;;11.60;99.90;;;;;;8425197;28;19920;-73
2021/11/18 22:39:43;;;;;;;;;;;11.60;99.90;;;;;;8424422;28;19920;-73
2021/11/18 22:43:52;;;;;;;;;;;11.70;99.90;;;;;;8419038;28;19920;-73
2021/11/18 22:47:55;;;;;;;;;;;11.70;99.90;;;;;;8456376;28;19919;-73
2021/11/18 22:52:02;;;;;;;;;;;11.60;99.90;;;;;;8430597;28;19939;-73
2021/11/18 22:56:05;;;;;;;;;;;11.60;99.90;;;;;;8420001;28;19920;-73
2021/11/18 23:00:26;;;;;;;;;;;11.60;99.90;;;;;;8420998;28;19932;-73
2021/11/18 23:04:28;;;;;;;;;;;11.60;99.90;;;;;;8433047;28;20045;-73
2021/11/18 23:08:29;;;;;;;;;;;11.70;99.90;;;;;;8422201;28;19920;-73
2021/11/18 23:12:31;;;;;;;;;;;11.70;99.90;;;;;;8431275;28;19924;-73
2021/11/18 23:16:33;;;;;;;;;;;11.70;99.90;;;;;;8426050;28;20372;-73
2021/11/18 23:20:36;;;;;;;;;;;11.70;99.90;;;;;;8430317;28;20351;-75
2021/11/18 23:24:40;;;;;;;;;;;11.80;99.90;;;;;;8449526;28;20403;-73
2021/11/18 23:28:44;;;;;;;;;;;11.80;99.90;;;;;;8436393;28;19923;-73
2021/11/18 23:32:46;;;;;;;;;;;11.80;99.90;;;;;;8419947;28;19920;-73
2021/11/18 23:36:48;;;;;;;;;;;11.80;99.90;;;;;;8424362;28;20264;-73
2021/11/18 23:40:50;;;;;;;;;;;11.80;99.90;;;;;;8427520;28;19924;-73
2021/11/18 23:44:52;;;;;;;;;;;11.90;99.90;;;;;;8427124;28;19969;-73
2021/11/18 23:48:54;;;;;;;;;;;11.90;99.90;;;;;;8439543;28;19935;-74
2021/11/18 23:52:56;;;;;;;;;;;11.90;99.90;;;;;;8431591;28;19946;-73
2021/11/18 23:56:58;;;;;;;;;;;11.90;99.90;;;;;;8426428;28;19924;-73
